Time;durP1;ratioP1;P1;durP2;ratioP2;P2;SDS_P1;SDS_P2;PMS_P1;PMS_P2;Temp;Humidity;BMP_temperature;BMP_pressure;BME280_temperature;BME280_humidity;BME280_pressure;Samples;Min_cycle;Max_cycle;Signal;HPM_P1;HPM_P2
2021/10/04 00:01:06;;;;;;;1.13;0.70;;;14.10;99.90;;;;;;5045431;28;20021;-68
2021/10/04 00:03:32;;;;;;;0.93;0.90;;;14.10;99.90;;;;;;5038307;28;20370;-68
2021/10/04 00:05:57;;;;;;;1.10;0.85;;;14.10;99.90;;;;;;5053824;28;20095;-68
2021/10/04 00:08:23;;;;;;;0.93;0.80;;;14.00;99.90;;;;;;5039577;28;20033;-68
2021/10/04 00:10:49;;;;;;;1.48;0.85;;;14.00;99.90;;;;;;5046966;28;20079;-68
2021/10/04 00:13:15;;;;;;;1.02;0.90;;;14.00;99.90;;;;;;5052845;28;20032;-68
2021/10/04 00:15:42;;;;;;;1.00;0.90;;;13.90;99.90;;;;;;5033662;28;20025;-68
2021/10/04 00:18:07;;;;;;;1.67;1.27;;;13.90;99.90;;;;;;5034353;28;20035;-68
2021/10/04 00:20:33;;;;;;;0.85;0.80;;;13.90;99.90;;;;;;5046212;28;20132;-68
2021/10/04 00:23:00;;;;;;;0.90;0.77;;;13.90;99.90;;;;;;5041926;28;20466;-68
2021/10/04 00:25:26;;;;;;;0.93;0.68;;;13.90;99.90;;;;;;5052308;28;20109;-68
2021/10/04 00:27:51;;;;;;;0.85;0.70;;;13.90;99.90;;;;;;5053412;28;20036;-68
2021/10/04 00:30:18;;;;;;;2.58;0.85;;;13.90;99.90;;;;;;5054093;28;20029;-68
2021/10/04 00:32:46;;;;;;;0.82;0.82;;;14.00;99.90;;;;;;5053508;28;20024;-68
2021/10/04 00:35:15;;;;;;;0.85;0.65;;;14.00;99.90;;;;;;5036445;28;20033;-68
2021/10/04 00:37:41;;;;;;;1.40;0.93;;;14.00;99.90;;;;;;5042118;28;20028;-68
2021/10/04 00:40:10;;;;;;;2.13;1.08;;;14.00;99.90;;;;;;5037478;28;20040;-68
2021/10/04 00:42:35;;;;;;;0.80;0.60;;;14.00;99.90;;;;;;5032789;28;20026;-68
2021/10/04 00:45:02;;;;;;;0.77;0.70;;;14.00;99.90;;;;;;5034236;28;20034;-68
2021/10/04 00:47:28;;;;;;;1.55;1.05;;;14.00;99.90;;;;;;5034054;28;20060;-68
2021/10/04 00:49:53;;;;;;;0.70;0.70;;;14.00;99.90;;;;;;5039520;28;20349;-68
2021/10/04 00:52:19;;;;;;;1.13;1.00;;;14.10;99.90;;;;;;5046099;28;20029;-68
2021/10/04 00:54:45;;;;;;;1.02;0.70;;;14.00;99.90;;;;;;5045723;28;20030;-68
2021/10/04 00:57:11;;;;;;;1.27;0.80;;;14.00;99.90;;;;;;5034006;28;20033;-68
2021/10/04 00:59:36;;;;;;;1.20;0.82;;;14.00;99.90;;;;;;5015503;28;20067;-68
2021/10/04 01:02:02;;;;;;;1.35;0.70;;;14.00;99.90;;;;;;5033609;28;20083;-68
2021/10/04 01:04:28;;;;;;;1.55;1.05;;;14.00;99.90;;;;;;5035826;28;20052;-68
2021/10/04 01:06:55;;;;;;;1.30;0.80;;;13.90;99.90;;;;;;5042521;28;20530;-68
2021/10/04 01:09:22;;;;;;;0.98;0.80;;;13.90;99.90;;;;;;5033540;28;20466;-68
2021/10/04 01:11:48;;;;;;;0.85;0.60;;;13.90;99.90;;;;;;5032568;28;20026;-68
2021/10/04 01:14:13;;;;;;;2.88;0.90;;;13.80;99.90;;;;;;5033327;28;20437;-68
2021/10/04 01:16:39;;;;;;;0.60;0.60;;;13.80;99.90;;;;;;5033142;28;20025;-68
2021/10/04 01:19:05;;;;;;;1.45;0.80;;;13.70;99.90;;;;;;5043948;28;20377;-68
2021/10/04 01:21:30;;;;;;;1.27;0.60;;;13.70;99.90;;;;;;5033371;28;20034;-70
2021/10/04 01:23:56;;;;;;;0.82;0.70;;;13.70;99.90;;;;;;5018930;28;20034;-68
2021/10/04 01:26:24;;;;;;;0.68;0.60;;;13.70;99.90;;;;;;5052781;28;20025;-67
2021/10/04 01:28:50;;;;;;;1.23;0.60;;;13.70;99.90;;;;;;5046540;28;20036;-68
2021/10/04 01:31:21;;;;;;;0.68;0.68;;;13.70;99.90;;;;;;5034395;28;20033;-68
2021/10/04 01:33:47;;;;;;;1.50;0.90;;;13.60;99.90;;;;;;5033427;28;20052;-68
2021/10/04 01:36:12;;;;;;;0.60;0.60;;;13.60;99.90;;;;;;5033296;28;20041;-68
2021/10/04 01:38:38;;;;;;;0.57;0.57;;;13.60;99.90;;;;;;5033920;28;20045;-68
2021/10/04 01:41:04;;;;;;;2.92;1.48;;;13.70;99.90;;;;;;5034051;28;20041;-68
2021/10/04 01:43:30;;;;;;;0.60;0.60;;;13.70;99.90;;;;;;5046947;28;20043;-68
2021/10/04 01:45:55;;;;;;;1.15;0.70;;;13.60;99.90;;;;;;5052068;28;20104;-68
2021/10/04 01:48:21;;;;;;;1.25;0.70;;;13.70;99.90;;;;;;5052223;28;20424;-67
2021/10/04 01:50:47;;;;;;;0.50;0.47;;;13.70;99.90;;;;;;5038412;28;20037;-68
2021/10/04 01:53:12;;;;;;;1.25;0.70;;;13.70;99.90;;;;;;5037420;28;20096;-68
2021/10/04 01:55:38;;;;;;;1.95;0.85;;;13.70;99.90;;;;;;5041274;28;20028;-68
2021/10/04 01:58:05;;;;;;;0.77;0.77;;;13.60;99.90;;;;;;5032138;28;20079;-68
2021/10/04 02:00:30;;;;;;;0.93;0.60;;;13.50;99.90;;;;;;5032888;28;20040;-68
2021/10/04 02:02:57;;;;;;;0.60;0.60;;;13.50;99.90;;;;;;5022600;28;20037;-67
2021/10/04 02:05:24;;;;;;;0.80;0.70;;;13.50;99.90;;;;;;5034183;28;20029;-68
2021/10/04 02:07:51;;;;;;;0.73;0.60;;;13.50;99.90;;;;;;5033325;28;20049;-68
2021/10/04 02:10:20;;;;;;;0.68;0.52;;;13.50;99.90;;;;;;5057004;28;20480;-68
2021/10/04 02:12:46;;;;;;;0.65;0.50;;;13.50;99.90;;;;;;5051337;28;20370;-68
2021/10/04 02:15:12;;;;;;;0.60;0.60;;;13.50;99.90;;;;;;5052259;28;20039;-67
2021/10/04 02:17:39;;;;;;;1.15;0.50;;;13.40;99.90;;;;;;5043747;28;20025;-67
2021/10/04 02:20:09;;;;;;;0.85;0.65;;;13.40;99.90;;;;;;5056938;28;20474;-67
2021/10/04 02:22:35;;;;;;;1.52;0.65;;;13.30;99.90;;;;;;5034820;28;20029;-67
2021/10/04 02:25:00;;;;;;;0.98;0.63;;;13.20;99.90;;;;;;5031551;28;20045;-68
2021/10/04 02:27:26;;;;;;;0.60;0.60;;;13.20;99.90;;;;;;5046812;28;20049;-68
2021/10/04 02:29:52;;;;;;;0.60;0.55;;;13.10;99.90;;;;;;5048600;28;20037;-67
2021/10/04 02:32:17;;;;;;;1.00;0.73;;;13.10;99.90;;;;;;5033993;28;20083;-67
2021/10/04 02:34:43;;;;;;;0.70;0.60;;;13.00;99.90;;;;;;5050465;28;20029;-68
2021/10/04 02:37:09;;;;;;;2.22;0.73;;;13.00;99.90;;;;;;5048330;28;20025;-67
2021/10/04 02:39:34;;;;;;;1.02;0.70;;;13.00;99.90;;;;;;5051552;28;20086;-67
2021/10/04 02:42:01;;;;;;;0.57;0.57;;;12.90;99.90;;;;;;5028161;28;20033;-67
2021/10/04 02:44:26;;;;;;;1.05;0.90;;;12.90;99.90;;;;;;5050757;28;20071;-67
2021/10/04 02:46:52;;;;;;;0.95;0.80;;;12.80;99.90;;;;;;5051100;28;20032;-67
2021/10/04 02:49:18;;;;;;;0.80;0.80;;;12.70;99.90;;;;;;5050207;28;20466;-68
2021/10/04 02:51:43;;;;;;;2.28;0.85;;;12.70;99.90;;;;;;5050468;28;20458;-67
2021/10/04 02:54:09;;;;;;;0.77;0.65;;;12.60;99.90;;;;;;5045374;28;20466;-67
2021/10/04 02:56:35;;;;;;;1.73;1.33;;;12.60;99.90;;;;;;5051791;28;20021;-67
2021/10/04 02:59:00;;;;;;;0.80;0.80;;;12.50;99.90;;;;;;5049088;28;20994;-67
2021/10/04 03:01:26;;;;;;;0.80;0.70;;;12.50;99.90;;;;;;5041034;28;20083;-68
2021/10/04 03:03:51;;;;;;;0.70;0.60;;;12.50;99.90;;;;;;5037905;28;20033;-67
2021/10/04 03:06:17;;;;;;;0.60;0.60;;;12.50;99.90;;;;;;5049768;28;20037;-67
2021/10/04 03:08:43;;;;;;;0.43;0.43;;;12.40;99.90;;;;;;5048858;28;20036;-67
2021/10/04 03:11:08;;;;;;;0.73;0.73;;;12.40;99.90;;;;;;5046867;28;20029;-67
2021/10/04 03:13:34;;;;;;;0.68;0.50;;;12.30;99.90;;;;;;5042971;28;20103;-67
2021/10/04 03:16:00;;;;;;;0.60;0.60;;;12.30;99.90;;;;;;5030767;28;20057;-67
2021/10/04 03:18:25;;;;;;;0.90;0.77;;;12.30;99.90;;;;;;5031363;28;20352;-67
2021/10/04 03:20:51;;;;;;;1.10;0.60;;;12.30;99.90;;;;;;5069994;28;20066;-67
2021/10/04 03:23:17;;;;;;;1.05;0.68;;;12.30;99.90;;;;;;5052942;28;20108;-67
2021/10/04 03:25:43;;;;;;;0.65;0.65;;;12.20;99.90;;;;;;5050516;28;20355;-67
2021/10/04 03:28:09;;;;;;;0.65;0.60;;;12.20;99.90;;;;;;5021330;28;20034;-67
2021/10/04 03:30:35;;;;;;;0.60;0.55;;;12.20;99.90;;;;;;5031446;28;20164;-67
2021/10/04 03:33:02;;;;;;;1.45;0.60;;;12.10;99.90;;;;;;5031084;28;20112;-67
2021/10/04 03:35:28;;;;;;;0.77;0.57;;;12.10;99.90;;;;;;5050743;28;20037;-69
2021/10/04 03:37:54;;;;;;;0.63;0.55;;;12.00;99.90;;;;;;5040772;28;20048;-67
2021/10/04 03:40:20;;;;;;;1.05;0.63;;;12.00;99.90;;;;;;5048857;28;20576;-67
2021/10/04 03:42:46;;;;;;;0.70;0.60;;;12.00;99.90;;;;;;5035194;28;20057;-67
2021/10/04 03:45:13;;;;;;;0.85;0.73;;;12.00;99.90;;;;;;5031371;28;20029;-68
2021/10/04 03:47:39;;;;;;;0.80;0.80;;;11.90;99.90;;;;;;5031473;28;20036;-68
2021/10/04 03:50:07;;;;;;;0.98;0.60;;;11.90;99.90;;;;;;5030772;28;20463;-67
2021/10/04 03:52:33;;;;;;;0.77;0.60;;;11.90;99.90;;;;;;5042278;28;20068;-67
2021/10/04 03:54:59;;;;;;;1.10;0.70;;;11.90;99.90;;;;;;5050181;28;20548;-67
2021/10/04 03:57:26;;;;;;;1.83;0.75;;;11.90;99.90;;;;;;5040682;28;20029;-67
2021/10/04 03:59:51;;;;;;;1.77;1.00;;;11.90;99.90;;;;;;5041132;28;20470;-67
2021/10/04 04:02:17;;;;;;;0.68;0.68;;;11.80;99.90;;;;;;5031069;28;20059;-67
2021/10/04 04:04:42;;;;;;;0.70;0.70;;;11.80;99.90;;;;;;5030444;28;20033;-67
2021/10/04 04:07:08;;;;;;;0.95;0.85;;;11.80;99.90;;;;;;5032668;28;20049;-67
2021/10/04 04:09:35;;;;;;;2.55;1.45;;;11.80;99.90;;;;;;5050624;28;20033;-67
2021/10/04 04:12:01;;;;;;;0.70;0.63;;;11.80;99.90;;;;;;5043359;28;20678;-67
2021/10/04 04:14:26;;;;;;;1.17;0.93;;;11.80;99.90;;;;;;5034722;28;20045;-67
2021/10/04 04:16:52;;;;;;;0.75;0.70;;;11.80;99.90;;;;;;5034536;28;20078;-67
2021/10/04 04:19:18;;;;;;;1.00;0.70;;;11.80;99.90;;;;;;5045725;28;20497;-68
2021/10/04 04:21:43;;;;;;;1.02;0.80;;;11.70;99.90;;;;;;5035983;28;20021;-67
2021/10/04 04:24:16;;;;;;;1.55;0.90;;;11.70;99.90;;;;;;5041867;28;20029;-67
2021/10/04 04:26:46;;;;;;;1.25;0.68;;;11.70;99.90;;;;;;5034583;28;20029;-68
2021/10/04 04:29:12;;;;;;;3.67;0.95;;;11.60;99.90;;;;;;5052302;28;20040;-67
2021/10/04 04:31:37;;;;;;;1.08;0.77;;;11.60;99.90;;;;;;5054485;28;20033;-67
2021/10/04 04:34:03;;;;;;;0.68;0.60;;;11.60;99.90;;;;;;5027545;28;20060;-67
2021/10/04 04:36:29;;;;;;;1.95;0.73;;;11.60;99.90;;;;;;5034028;28;20026;-67
2021/10/04 04:38:54;;;;;;;0.93;0.70;;;11.60;99.90;;;;;;5048731;28;20385;-67
2021/10/04 04:41:20;;;;;;;0.60;0.60;;;11.60;99.90;;;;;;5053772;28;20029;-67
2021/10/04 04:43:46;;;;;;;0.60;0.60;;;11.60;99.90;;;;;;5042974;28;20049;-67
2021/10/04 04:46:11;;;;;;;0.85;0.70;;;11.50;99.90;;;;;;5033918;28;20068;-67
2021/10/04 04:48:37;;;;;;;0.50;0.47;;;11.60;99.90;;;;;;5029054;28;20025;-68
2021/10/04 04:51:03;;;;;;;2.40;0.73;;;11.60;99.90;;;;;;5052902;28;20087;-67
2021/10/04 04:53:28;;;;;;;0.70;0.65;;;11.60;99.90;;;;;;5034644;28;20093;-67
2021/10/04 04:55:54;;;;;;;1.55;0.80;;;11.60;99.90;;;;;;5043258;28;20453;-67
2021/10/04 04:58:21;;;;;;;1.17;0.82;;;11.50;99.90;;;;;;5054166;28;20454;-67
2021/10/04 05:00:46;;;;;;;1.35;0.80;;;11.50;99.90;;;;;;5052527;28;20416;-67
2021/10/04 05:03:13;;;;;;;1.48;1.08;;;11.50;99.90;;;;;;5052150;28;20079;-67
2021/10/04 05:05:38;;;;;;;4.40;1.30;;;11.50;99.90;;;;;;5045553;28;20032;-67
2021/10/04 05:08:05;;;;;;;1.67;1.33;;;11.60;99.90;;;;;;5033052;28;20037;-67
2021/10/04 05:10:31;;;;;;;1.80;1.70;;;11.50;99.90;;;;;;5053545;28;20124;-67
2021/10/04 05:12:57;;;;;;;1.13;1.02;;;11.60;99.90;;;;;;5042670;28;20363;-67
2021/10/04 05:15:23;;;;;;;1.52;1.40;;;11.60;99.90;;;;;;5033450;28;20030;-67
2021/10/04 05:17:48;;;;;;;1.45;1.25;;;11.50;99.90;;;;;;5033144;28;20029;-67
2021/10/04 05:20:14;;;;;;;3.03;1.50;;;11.60;99.90;;;;;;5062849;28;20021;-68
2021/10/04 05:22:40;;;;;;;1.40;1.30;;;11.60;99.90;;;;;;5051882;28;20029;-68
2021/10/04 05:25:07;;;;;;;0.98;0.98;;;11.60;99.90;;;;;;5032241;28;20868;-68
2021/10/04 05:27:33;;;;;;;1.63;1.25;;;11.60;99.90;;;;;;5032642;28;20701;-67
2021/10/04 05:29:59;;;;;;;1.23;1.13;;;11.60;99.90;;;;;;5033621;28;20145;-67
2021/10/04 05:32:25;;;;;;;1.48;1.33;;;11.60;99.90;;;;;;5052843;28;20374;-72
2021/10/04 05:34:51;;;;;;;1.85;1.30;;;11.60;99.90;;;;;;5047646;28;20064;-67
2021/10/04 05:37:17;;;;;;;2.33;1.40;;;11.50;99.90;;;;;;5048419;28;20060;-68
2021/10/04 05:39:42;;;;;;;2.30;1.35;;;11.60;99.90;;;;;;5046068;28;20118;-68
2021/10/04 05:42:08;;;;;;;3.20;1.85;;;11.60;99.90;;;;;;5050747;28;20025;-68
2021/10/04 05:44:34;;;;;;;4.38;2.42;;;11.60;99.90;;;;;;5044617;28;20041;-72
2021/10/04 05:47:00;;;;;;;3.08;1.75;;;11.60;99.90;;;;;;5039158;28;20032;-73
2021/10/04 05:49:26;;;;;;;4.63;2.40;;;11.60;99.90;;;;;;5052653;28;20056;-69
2021/10/04 05:51:51;;;;;;;2.40;2.20;;;11.60;99.90;;;;;;5051031;28;20492;-67
2021/10/04 05:54:20;;;;;;;2.38;1.70;;;11.60;99.90;;;;;;5051651;28;20045;-68
2021/10/04 05:56:45;;;;;;;2.67;2.00;;;11.60;99.90;;;;;;5051992;28;20078;-69
2021/10/04 05:59:11;;;;;;;1.70;1.60;;;11.60;99.90;;;;;;5034672;28;20025;-69
2021/10/04 06:01:36;;;;;;;2.60;1.98;;;11.50;99.90;;;;;;5040536;28;20064;-69
2021/10/04 06:04:02;;;;;;;2.15;1.42;;;11.60;99.90;;;;;;5016656;28;20144;-71
2021/10/04 06:06:28;;;;;;;3.08;1.02;;;11.60;99.90;;;;;;5052621;28;20048;-70
2021/10/04 06:08:53;;;;;;;2.65;1.20;;;11.60;99.90;;;;;;5051594;28;20029;-69
2021/10/04 06:11:19;;;;;;;2.97;1.20;;;11.50;99.90;;;;;;5052232;28;20025;-69
2021/10/04 06:13:45;;;;;;;1.52;1.10;;;11.50;99.90;;;;;;5051364;28;20362;-68
2021/10/04 06:16:10;;;;;;;1.50;1.13;;;11.50;99.90;;;;;;5032055;28;20025;-69
2021/10/04 06:18:36;;;;;;;1.02;0.93;;;11.50;99.90;;;;;;5049427;28;20524;-69
2021/10/04 06:21:02;;;;;;;1.50;0.93;;;11.50;99.90;;;;;;5056907;28;20037;-67
2021/10/04 06:23:27;;;;;;;4.47;0.90;;;11.50;99.90;;;;;;5027471;28;20035;-69
2021/10/04 06:25:53;;;;;;;1.17;1.02;;;11.50;99.90;;;;;;5037705;28;20076;-72
2021/10/04 06:28:19;;;;;;;2.58;1.38;;;11.50;99.90;;;;;;5032844;28;20018;-68
2021/10/04 06:30:44;;;;;;;3.20;1.17;;;11.40;99.90;;;;;;5031120;28;20385;-68
2021/10/04 06:33:10;;;;;;;1.63;1.15;;;11.50;99.90;;;;;;5022453;28;20033;-67
2021/10/04 06:35:36;;;;;;;1.58;1.00;;;11.50;99.90;;;;;;5034089;28;20132;-67
2021/10/04 06:38:02;;;;;;;1.58;0.90;;;11.50;99.90;;;;;;5032070;28;20038;-67
2021/10/04 06:40:27;;;;;;;1.83;0.88;;;11.50;99.90;;;;;;5049435;28;20043;-67
2021/10/04 06:42:53;;;;;;;1.95;1.15;;;11.50;99.90;;;;;;5051088;28;20029;-68
2021/10/04 06:45:19;;;;;;;1.13;1.02;;;11.50;99.90;;;;;;5044936;28;20025;-68
2021/10/04 06:47:44;;;;;;;1.38;1.17;;;11.50;99.90;;;;;;5051792;28;20154;-68
2021/10/04 06:50:10;;;;;;;2.72;1.83;;;11.50;99.90;;;;;;5050588;28;20518;-67
2021/10/04 06:52:40;;;;;;;2.75;1.50;;;11.50;99.90;;;;;;5050019;28;20040;-67
2021/10/04 06:55:07;;;;;;;2.47;1.70;;;11.50;99.90;;;;;;5043475;28;20590;-68
2021/10/04 06:57:33;;;;;;;2.47;2.28;;;11.50;99.90;;;;;;5052024;28;20119;-68
2021/10/04 06:59:59;;;;;;;4.82;2.50;;;11.50;99.90;;;;;;5032714;28;20481;-67
2021/10/04 07:02:24;;;;;;;2.85;2.28;;;11.60;99.90;;;;;;5051272;28;20036;-68
2021/10/04 07:04:50;;;;;;;3.63;2.17;;;11.60;99.90;;;;;;5043268;28;20094;-67
2021/10/04 07:07:15;;;;;;;3.65;2.20;;;11.60;99.90;;;;;;5031183;28;20053;-68
2021/10/04 07:09:42;;;;;;;3.10;2.72;;;11.60;99.90;;;;;;5044740;28;20041;-68
2021/10/04 07:12:08;;;;;;;3.28;2.40;;;11.70;99.90;;;;;;5050673;28;20032;-68
2021/10/04 07:14:33;;;;;;;3.25;2.47;;;11.70;99.90;;;;;;5049799;28;20044;-68
2021/10/04 07:16:59;;;;;;;3.08;2.20;;;11.70;99.90;;;;;;5050368;28;20028;-68
2021/10/04 07:19:25;;;;;;;2.97;2.28;;;11.70;99.90;;;;;;5056100;28;20498;-68
2021/10/04 07:21:53;;;;;;;4.18;2.30;;;11.70;99.90;;;;;;5050762;28;20027;-67
2021/10/04 07:24:22;;;;;;;5.68;2.10;;;11.80;99.90;;;;;;5043376;28;20129;-68
2021/10/04 07:26:49;;;;;;;3.13;2.40;;;11.80;99.90;;;;;;5050983;28;20036;-67
2021/10/04 07:29:16;;;;;;;5.57;2.90;;;11.90;99.90;;;;;;5046188;28;20025;-68
2021/10/04 07:31:41;;;;;;;5.00;3.22;;;11.90;99.90;;;;;;5049476;28;20042;-68
2021/10/04 07:34:08;;;;;;;5.75;3.33;;;11.90;99.90;;;;;;5036972;28;20041;-67
2021/10/04 07:36:34;;;;;;;7.93;4.00;;;12.00;99.90;;;;;;5046531;28;20033;-68
2021/10/04 07:39:00;;;;;;;5.20;3.42;;;12.00;99.90;;;;;;5029814;28;20397;-68
2021/10/04 07:41:26;;;;;;;5.43;3.70;;;12.00;99.90;;;;;;5033946;28;20473;-68
2021/10/04 07:43:52;;;;;;;9.32;4.57;;;12.10;99.90;;;;;;5043726;28;20063;-67
2021/10/04 07:46:17;;;;;;;7.15;4.85;;;12.10;99.90;;;;;;5048425;28;20048;-68
2021/10/04 07:48:43;;;;;;;9.80;5.55;;;12.10;99.90;;;;;;5045554;28;20033;-69
2021/10/04 07:51:11;;;;;;;10.20;7.30;;;12.10;99.90;;;;;;5031717;28;20193;-68
2021/10/04 07:53:39;;;;;;;8.32;6.88;;;12.10;99.90;;;;;;5039211;28;20044;-68
2021/10/04 07:56:05;;;;;;;8.32;6.80;;;12.10;99.90;;;;;;5055405;28;20029;-68
2021/10/04 07:58:31;;;;;;;8.68;6.65;;;12.10;99.90;;;;;;5054068;28;20029;-68
2021/10/04 08:00:56;;;;;;;7.03;6.32;;;12.20;99.90;;;;;;5053562;28;20500;-68
2021/10/04 08:03:22;;;;;;;7.18;6.45;;;12.20;99.90;;;;;;5052440;28;20036;-67
2021/10/04 08:05:48;;;;;;;6.97;6.28;;;12.10;99.90;;;;;;5039276;28;20037;-68
2021/10/04 08:08:13;;;;;;;5.28;4.78;;;12.00;99.90;;;;;;5053776;28;20146;-68
2021/10/04 08:10:39;;;;;;;5.20;4.70;;;12.00;99.90;;;;;;5042858;28;20748;-68
2021/10/04 08:13:05;;;;;;;6.10;3.35;;;12.00;99.90;;;;;;5050106;28;20037;-68
2021/10/04 08:15:31;;;;;;;3.78;3.08;;;11.90;99.90;;;;;;5035277;28;20038;-68
2021/10/04 08:17:57;;;;;;;3.75;2.80;;;11.90;99.90;;;;;;5042016;28;20040;-67
2021/10/04 08:20:23;;;;;;;3.10;2.65;;;12.00;99.90;;;;;;5070477;28;20377;-68
2021/10/04 08:22:49;;;;;;;3.42;3.13;;;12.00;99.90;;;;;;5065629;28;20466;-67
2021/10/04 08:25:15;;;;;;;4.90;2.88;;;12.10;99.90;;;;;;5051427;28;20032;-68
2021/10/04 08:27:41;;;;;;;3.15;2.75;;;12.00;99.90;;;;;;5053864;28;20036;-67
2021/10/04 08:30:08;;;;;;;3.53;3.22;;;12.10;99.90;;;;;;5036649;28;20112;-67
2021/10/04 08:32:34;;;;;;;3.17;2.88;;;12.10;99.90;;;;;;5035149;28;20386;-67
2021/10/04 08:34:59;;;;;;;3.88;3.40;;;12.10;99.90;;;;;;5044577;28;20120;-67
2021/10/04 08:37:26;;;;;;;5.05;4.00;;;12.10;99.90;;;;;;5052276;28;20082;-68
2021/10/04 08:39:52;;;;;;;4.60;4.13;;;12.00;99.90;;;;;;5046251;28;20071;-67
2021/10/04 08:42:19;;;;;;;4.03;3.70;;;12.00;99.90;;;;;;5053768;28;20470;-69
2021/10/04 08:44:47;;;;;;;4.88;4.25;;;12.00;99.90;;;;;;5040206;28;20367;-68
2021/10/04 08:47:13;;;;;;;5.32;4.82;;;12.00;99.90;;;;;;5033252;28;20041;-67
2021/10/04 08:49:39;;;;;;;5.03;4.30;;;12.00;99.90;;;;;;5046939;28;20032;-67
2021/10/04 08:52:05;;;;;;;4.07;3.60;;;12.10;99.90;;;;;;5052445;28;20036;-67
2021/10/04 08:54:31;;;;;;;4.18;3.78;;;12.00;99.90;;;;;;5043565;28;20041;-67
2021/10/04 08:56:57;;;;;;;4.53;3.95;;;12.00;99.90;;;;;;5039520;28;20040;-67
2021/10/04 08:59:23;;;;;;;6.78;4.18;;;12.00;99.90;;;;;;5051790;28;20028;-67
2021/10/04 09:01:49;;;;;;;6.38;4.78;;;12.00;99.90;;;;;;5052944;28;20025;-67
2021/10/04 09:04:19;;;;;;;5.55;4.28;;;12.10;99.90;;;;;;5046778;28;20037;-67
2021/10/04 09:06:45;;;;;;;6.85;4.90;;;12.10;99.90;;;;;;5053396;28;20091;-67
2021/10/04 09:09:13;;;;;;;4.30;3.63;;;12.10;99.90;;;;;;5034054;28;20356;-67
2021/10/04 09:11:42;;;;;;;5.90;3.70;;;12.10;99.90;;;;;;5033534;28;20100;-67
2021/10/04 09:14:15;;;;;;;4.03;3.70;;;12.20;99.90;;;;;;5038912;28;20044;-67
2021/10/04 09:16:49;;;;;;;4.25;3.80;;;12.20;99.90;;;;;;5052946;28;20036;-67
2021/10/04 09:19:20;;;;;;;5.25;4.30;;;12.20;99.90;;;;;;5045996;28;20030;-67
2021/10/04 09:22:04;;;;;;;4.38;3.75;;;12.20;99.90;;;;;;5015746;28;20394;-67
2021/10/04 09:24:30;;;;;;;3.65;3.17;;;12.30;99.90;;;;;;5042346;28;20033;-67
2021/10/04 09:26:56;;;;;;;3.67;3.38;;;12.30;99.90;;;;;;5052393;28;20037;-67
2021/10/04 09:29:24;;;;;;;3.80;3.50;;;12.20;99.90;;;;;;5042542;28;20109;-67
2021/10/04 09:31:50;;;;;;;5.07;4.28;;;12.20;99.90;;;;;;5033357;28;20029;-68
2021/10/04 09:34:20;;;;;;;3.67;3.38;;;12.30;99.90;;;;;;5039124;28;20048;-67
2021/10/04 09:36:53;;;;;;;4.97;3.45;;;12.30;99.90;;;;;;5050115;28;20033;-67
2021/10/04 09:39:24;;;;;;;3.15;2.78;;;12.30;99.90;;;;;;5046428;28;20485;-68
2021/10/04 09:42:14;;;;;;;3.72;2.90;;;12.40;99.90;;;;;;5033178;28;20108;-68
2021/10/04 09:44:39;;;;;;;;;;;12.40;99.90;;;;;;5039428;28;20045;-67
2021/10/04 09:47:13;;;;;;;2.63;2.42;;;12.40;99.90;;;;;;5051808;28;19912;-68
2021/10/04 09:50:07;;;;;;;3.15;1.80;;;12.50;99.90;;;;;;5046938;28;20033;-67
2021/10/04 09:52:43;;;;;;;1.95;1.85;;;12.60;99.90;;;;;;5021749;28;20088;-67
2021/10/04 09:55:17;;;;;;;3.30;1.67;;;12.60;99.90;;;;;;5051838;28;20068;-67
2021/10/04 09:57:52;;;;;;;3.08;1.42;;;12.60;99.90;;;;;;5032928;28;20029;-67
2021/10/04 10:00:18;;;;;;;1.85;1.40;;;12.60;99.90;;;;;;5042337;28;20033;-67
2021/10/04 10:02:44;;;;;;;2.30;1.58;;;12.60;99.90;;;;;;5052381;28;20033;-67
2021/10/04 10:05:10;;;;;;;2.33;1.60;;;12.60;99.90;;;;;;5032069;28;20498;-67
2021/10/04 10:07:36;;;;;;;2.22;1.35;;;12.60;99.90;;;;;;5051438;28;20056;-68
2021/10/04 10:10:03;;;;;;;1.70;1.30;;;12.50;99.90;;;;;;5042598;28;20033;-67
2021/10/04 10:12:29;;;;;;;4.18;2.10;;;12.60;99.90;;;;;;5032786;28;20056;-67
2021/10/04 10:14:56;;;;;;;2.20;2.00;;;12.60;99.90;;;;;;5031735;28;20478;-67
2021/10/04 10:17:26;;;;;;;2.70;2.50;;;12.70;99.90;;;;;;5034249;28;20030;-68
2021/10/04 10:19:55;;;;;;;3.00;2.05;;;12.80;99.90;;;;;;5056386;28;20470;-68
2021/10/04 10:22:21;;;;;;;3.45;2.00;;;12.80;99.90;;;;;;5051020;28;20385;-68
2021/10/04 10:24:51;;;;;;;1.52;1.42;;;12.90;99.90;;;;;;5052138;28;20029;-67
2021/10/04 10:27:16;;;;;;;1.60;1.50;;;13.00;99.90;;;;;;5051496;28;20029;-68
2021/10/04 10:29:43;;;;;;;2.13;1.33;;;13.10;99.90;;;;;;5039091;28;20041;-67
2021/10/04 10:32:15;;;;;;;1.08;0.75;;;13.10;99.90;;;;;;5031531;28;20093;-67
2021/10/04 10:34:42;;;;;;;1.15;1.05;;;13.20;99.90;;;;;;5032099;28;20037;-67
2021/10/04 10:37:10;;;;;;;1.02;0.93;;;13.10;99.90;;;;;;5046295;28;20065;-67
2021/10/04 10:39:58;;;;;;;2.15;1.20;;;13.10;99.90;;;;;;5039824;28;20034;-68
2021/10/04 10:42:26;;;;;;;2.15;1.55;;;13.20;99.90;;;;;;5032412;28;20017;-67
2021/10/04 10:45:19;;;;;;;1.40;1.30;;;13.30;99.90;;;;;;5043815;28;20033;-67
2021/10/04 10:47:44;;;;;;;1.40;0.52;;;13.40;99.90;;;;;;5031361;28;20124;-67
2021/10/04 10:50:12;;;;;;;1.23;0.70;;;13.40;99.90;;;;;;5047308;28;20121;-67
2021/10/04 10:52:41;;;;;;;0.88;0.55;;;13.50;99.90;;;;;;5051554;28;20103;-67
2021/10/04 10:55:19;;;;;;;0.40;0.40;;;13.50;99.90;;;;;;5050605;28;20393;-66
2021/10/04 10:58:32;;;;;;;0.43;0.40;;;13.60;99.90;;;;;;5051593;28;20489;-67
2021/10/04 11:00:51;;;;;;;4.80;0.68;;;13.60;99.90;;;;;;5025820;28;20411;-67
2021/10/04 11:03:22;;;;;;;1.27;0.50;;;13.60;99.90;;;;;;5032110;28;20603;-67
2021/10/04 11:06:06;;;;;;;6.72;1.25;;;13.60;99.90;;;;;;5051406;28;20029;-67
2021/10/04 11:08:35;;;;;;;1.13;0.40;;;13.60;99.90;;;;;;5031040;28;20497;-67
2021/10/04 11:11:00;;;;;;;1.08;0.57;;;13.70;99.90;;;;;;5031042;28;20108;-67
2021/10/04 11:13:28;;;;;;;1.00;0.60;;;13.70;99.90;;;;;;5033932;28;20164;-67
2021/10/04 11:15:56;;;;;;;0.47;0.40;;;13.80;99.90;;;;;;5050873;28;20044;-67
2021/10/04 11:18:23;;;;;;;1.40;0.63;;;13.80;99.90;;;;;;5050262;28;20025;-67
2021/10/04 11:21:02;;;;;;;2.25;0.93;;;13.90;99.90;;;;;;5070551;28;20020;-67
2021/10/04 11:23:28;;;;;;;1.45;1.00;;;14.00;99.90;;;;;;5067727;28;20025;-66
2021/10/04 11:25:56;;;;;;;4.43;1.20;;;14.10;99.90;;;;;;5052286;28;20033;-67
2021/10/04 11:28:33;;;;;;;2.00;0.90;;;14.10;99.90;;;;;;5039510;28;20033;-67
2021/10/04 11:31:15;;;;;;;1.67;1.00;;;14.20;99.90;;;;;;5055140;28;20052;-65
2021/10/04 11:34:06;;;;;;;1.95;0.80;;;14.30;99.90;;;;;;5055216;28;20044;-66
2021/10/04 11:36:48;;;;;;;2.20;0.77;;;14.50;99.90;;;;;;5055851;28;20040;-67
2021/10/04 11:39:24;;;;;;;1.75;0.80;;;14.60;99.90;;;;;;5045546;28;20030;-67
2021/10/04 11:41:56;;;;;;;1.98;0.90;;;14.60;99.90;;;;;;5039346;28;20120;-67
2021/10/04 11:44:25;;;;;;;1.52;0.93;;;14.70;99.90;;;;;;5053931;28;20040;-67
2021/10/04 11:47:03;;;;;;;1.08;1.02;;;14.70;99.90;;;;;;5055157;28;20078;-67
2021/10/04 11:49:35;;;;;;;1.20;1.00;;;14.80;99.90;;;;;;5047240;28;20055;-68
2021/10/04 11:52:05;;;;;;;0.80;0.70;;;14.80;99.90;;;;;;5034743;28;20038;-67
2021/10/04 11:54:39;;;;;;;0.65;0.60;;;14.80;99.90;;;;;;5035027;28;20041;-67
2021/10/04 11:57:07;;;;;;;1.10;0.60;;;14.80;99.90;;;;;;5054061;28;20384;-66
2021/10/04 12:00:05;;;;;;;2.45;1.00;;;14.70;99.90;;;;;;5045402;28;20025;-68
2021/10/04 12:02:35;;;;;;;1.08;0.47;;;14.70;99.90;;;;;;5053811;28;20033;-67
2021/10/04 12:05:22;;;;;;;1.27;0.50;;;14.60;99.90;;;;;;5035885;28;20029;-65
2021/10/04 12:08:08;;;;;;;2.13;0.68;;;14.60;99.90;;;;;;5035145;28;20164;-67
2021/10/04 12:11:00;;;;;;;0.93;0.70;;;14.70;99.90;;;;;;5051569;28;20068;-67
2021/10/04 12:13:30;;;;;;;1.95;0.63;;;14.80;99.90;;;;;;5053735;28;20095;-66
2021/10/04 12:15:59;;;;;;;0.98;0.80;;;14.70;99.90;;;;;;5054698;28;20029;-67
2021/10/04 12:18:27;;;;;;;0.63;0.57;;;14.80;99.90;;;;;;5053749;28;20482;-67
2021/10/04 12:21:23;;;;;;;1.80;0.75;;;14.80;99.90;;;;;;5034578;28;20295;-68
2021/10/04 12:24:23;;;;;;;1.67;0.70;;;14.80;99.90;;;;;;5045489;28;20037;-67
2021/10/04 12:26:54;;;;;;;1.05;0.70;;;14.90;99.90;;;;;;5054212;28;20037;-67
2021/10/04 12:29:43;;;;;;;0.75;0.65;;;14.90;99.90;;;;;;5050632;28;20112;-67
2021/10/04 12:32:24;;;;;;;0.90;0.70;;;15.00;99.90;;;;;;5053472;28;20106;-66
2021/10/04 12:35:09;;;;;;;1.73;0.90;;;15.10;99.90;;;;;;5053967;28;20065;-67
2021/10/04 12:37:41;;;;;;;2.55;1.10;;;15.10;99.90;;;;;;5054314;28;20083;-67
2021/10/04 12:40:33;;;;;;;0.77;0.70;;;15.20;99.90;;;;;;5040157;28;20478;-68
2021/10/04 12:43:01;;;;;;;2.63;1.10;;;15.20;99.90;;;;;;5034202;28;20123;-65
2021/10/04 12:45:27;;;;;;;1.60;1.10;;;15.40;99.90;;;;;;5053385;28;20038;-67
2021/10/04 12:48:03;;;;;;;3.13;0.60;;;15.50;99.90;;;;;;5053637;28;20037;-67
2021/10/04 12:50:35;;;;;;;2.45;0.88;;;15.60;99.90;;;;;;5040095;28;20117;-67
2021/10/04 12:53:30;;;;;;;1.50;0.65;;;15.70;99.90;;;;;;5041448;28;20036;-66